Time;durP1;ratioP1;P1;durP2;ratioP2;P2;SDS_P1;SDS_P2;PMS_P1;PMS_P2;Temp;Humidity;BMP_temperature;BMP_pressure;BME280_temperature;BME280_humidity;BME280_pressure;Samples;Min_cycle;Max_cycle;Signal;HPM_P1;HPM_P2
2022/11/11 00:01:32;;;;;;;60.23;31.95;;;;;;;8.85;100.00;100950.45;1726100;82;21286;-91
2022/11/11 00:04:19;;;;;;;61.90;29.55;;;;;;;8.82;100.00;100953.15;1717023;81;21068;-93
2022/11/11 00:07:05;;;;;;;46.75;26.50;;;;;;;8.79;100.00;100955.84;1722515;81;21090;-91
2022/11/11 00:09:51;;;;;;;63.92;33.10;;;;;;;8.78;100.00;100955.40;1739803;82;21065;-92
2022/11/11 00:12:36;;;;;;;55.48;30.62;;;;;;;8.82;100.00;100956.63;1724148;81;21057;-91
2022/11/11 00:15:23;;;;;;;51.77;28.00;;;;;;;8.90;100.00;100956.49;1735266;82;21136;-90
2022/11/11 00:27:28;;;;;;;53.15;27.17;;;;;;;8.88;100.00;100960.94;1726033;81;21076;-92
2022/11/11 00:30:14;;;;;;;55.15;29.48;;;;;;;8.85;100.00;100964.91;1742424;81;21890;-91
2022/11/11 00:33:00;;;;;;;55.95;29.37;;;;;;;8.87;100.00;100963.13;1742364;81;21061;-91
2022/11/11 00:35:53;;;;;;;53.98;27.40;;;;;;;8.91;100.00;100970.06;1720900;82;21136;-91
2022/11/11 00:38:51;;;;;;;49.35;27.22;;;;;;;8.91;100.00;100960.88;1717779;82;21231;-90
2022/11/11 00:41:38;;;;;;;51.35;29.12;;;;;;;8.90;100.00;100964.83;1733532;81;21665;-91
2022/11/11 00:44:23;;;;;;;48.95;27.45;;;;;;;8.84;100.00;100967.12;1718609;81;21307;-91
2022/11/11 00:53:23;;;;;;;52.33;28.23;;;;;;;8.85;100.00;100962.28;1736463;81;21060;-89
2022/11/11 00:56:08;;;;;;;43.33;25.12;;;;;;;8.85;100.00;100967.53;1740385;82;21551;-91
2022/11/11 00:58:54;;;;;;;40.28;23.50;;;;;;;8.77;100.00;100962.87;1736142;81;21205;-90
2022/11/11 01:01:38;;;;;;;46.45;25.70;;;;;;;8.79;100.00;100965.89;1712818;82;21136;-88
2022/11/11 01:04:23;;;;;;;46.70;25.20;;;;;;;8.81;100.00;100965.42;1741044;81;21487;-89
2022/11/11 01:07:09;;;;;;;48.35;26.02;;;;;;;8.84;100.00;100967.12;1740363;82;21077;-89
2022/11/11 01:09:54;;;;;;;46.33;26.82;;;;;;;8.82;100.00;100966.28;1733482;81;21073;-90
2022/11/11 01:12:40;;;;;;;46.08;25.80;;;;;;;8.73;100.00;100971.23;1729962;82;21411;-89
2022/11/11 01:15:24;;;;;;;39.95;23.12;;;;;;;8.78;100.00;100977.72;1720370;82;21065;-90
2022/11/11 01:18:13;;;;;;;46.98;25.55;;;;;;;8.80;100.00;100977.25;1714933;82;21077;-90
2022/11/11 01:21:09;;;;;;;49.45;26.02;;;;;;;8.75;100.00;100972.53;1729884;82;21128;-88
2022/11/11 01:23:55;;;;;;;43.02;22.82;;;;;;;8.76;100.00;100969.86;1712350;82;21089;-87
2022/11/11 01:26:40;;;;;;;37.98;22.65;;;;;;;8.77;100.00;100976.86;1736064;81;21752;-91
2022/11/11 01:29:26;;;;;;;42.90;25.60;;;;;;;8.72;100.00;100970.82;1724394;81;21069;-87
2022/11/11 01:32:10;;;;;;;38.00;21.68;;;;;;;8.75;100.00;100970.77;1724648;81;21108;-91
2022/11/11 01:34:57;;;;;;;35.15;21.85;;;;;;;8.77;100.00;100973.38;1733176;82;21041;-89
2022/11/11 01:37:42;;;;;;;38.73;22.95;;;;;;;8.77;100.00;100973.38;1742458;82;21021;-90
2022/11/11 01:40:26;;;;;;;39.73;22.48;;;;;;;8.79;100.00;100978.16;1730241;81;21157;-92
2022/11/11 01:43:20;;;;;;;39.38;21.97;;;;;;;8.75;100.00;100984.34;1729221;82;21041;-90
2022/11/11 01:46:10;;;;;;;36.38;22.13;;;;;;;8.82;100.00;100980.27;1738438;81;21045;-87
2022/11/11 01:49:19;;;;;;;34.60;20.97;;;;;;;8.77;100.00;100983.88;1742682;81;21480;-89
2022/11/11 01:52:31;;;;;;;35.90;20.50;;;;;;;8.77;100.00;100983.88;1741466;81;21559;-89
2022/11/11 01:55:19;;;;;;;33.63;19.60;;;;;;;8.72;100.00;100987.00;1743273;81;22131;-89
2022/11/11 01:58:10;;;;;;;38.88;22.13;;;;;;;8.77;100.00;100987.82;1688912;83;21058;-87
2022/11/11 02:00:57;;;;;;;40.10;22.82;;;;;;;8.78;100.00;100989.09;1738087;81;21006;-91
2022/11/11 02:05:40;;;;;;;34.43;19.52;;;;;;;8.81;100.00;100990.80;1748326;79;21014;-90
2022/11/11 02:06:30;;;;;;;33.33;19.90;;;;;;;8.79;100.00;100992.61;1732719;80;21018;-87
2022/11/11 02:09:18;;;;;;;32.13;19.67;;;;;;;8.76;100.00;100991.31;1736652;81;21123;-90
2022/11/11 02:15:12;;;;;;;32.10;18.23;;;;;;;8.77;100.00;100989.13;1735967;80;21007;-88
2022/11/11 02:17:58;;;;;;;31.40;19.23;;;;;;;8.80;100.00;100996.50;1749794;80;21018;-88
2022/11/11 02:20:45;;;;;;;29.90;18.62;;;;;;;8.79;100.00;100996.09;1728763;80;21105;-85
2022/11/11 02:23:42;;;;;;;29.92;17.12;;;;;;;8.74;100.00;101000.98;1720204;80;21808;-88
2022/11/11 02:26:27;;;;;;;32.48;19.32;;;;;;;8.85;100.00;100996.42;1759601;80;21369;-89
2022/11/11 02:29:15;;;;;;;31.33;19.00;;;;;;;8.79;100.00;100996.55;1741008;80;21093;-90
2022/11/11 02:32:00;;;;;;;27.87;17.23;;;;;;;8.72;100.00;101005.38;1753065;80;20981;-90
2022/11/11 02:34:44;;;;;;;25.30;16.05;;;;;;;8.76;100.00;101016.27;1756319;80;21065;-88
2022/11/11 02:37:30;;;;;;;30.92;18.70;;;;;;;8.85;100.00;101010.88;1744996;80;21260;-89
2022/11/11 02:40:22;;;;;;;31.73;17.65;;;;;;;8.88;100.00;101006.91;1761230;80;21228;-88
2022/11/11 07:20:21;;;;;;;63.42;29.60;;;;;;;8.14;100.00;101233.59;1857297;77;28080;-96
2022/11/11 07:23:06;;;;;;;70.32;32.65;;;;;;;8.58;100.00;101236.23;1751960;81;21564;-65
2022/11/11 07:25:51;;;;;;;61.55;31.33;;;;;;;9.30;100.00;101230.95;1751839;81;21169;-66
2022/11/11 07:28:36;;;;;;;55.40;28.02;;;;;;;9.40;100.00;101230.78;1751759;81;20997;-67
2022/11/11 07:31:21;;;;;;;49.80;25.72;;;;;;;9.52;100.00;101238.06;1751672;81;21041;-66
2022/11/11 07:34:07;;;;;;;60.12;30.62;;;;;;;9.63;100.00;101243.58;1751800;81;21052;-66
2022/11/11 07:36:53;;;;;;;57.35;27.90;;;;;;;9.73;100.00;101245.65;1751719;81;21616;-66
2022/11/11 07:39:38;;;;;;;57.08;27.58;;;;;;;9.81;100.00;101247.70;1751696;81;21113;-66
2022/11/11 07:42:23;;;;;;;58.28;26.75;;;;;;;9.83;100.00;101248.54;1751860;81;21098;-66
2022/11/11 07:45:08;;;;;;;54.95;27.73;;;;;;;10.00;100.00;101251.34;1768471;80;20953;-67
2022/11/11 07:47:54;;;;;;;46.58;24.25;;;;;;;9.97;100.00;101251.40;1749781;81;21043;-67
2022/11/11 07:50:40;;;;;;;55.20;29.37;;;;;;;9.99;100.00;101250.93;1720602;83;21621;-67
2022/11/11 07:53:27;;;;;;;51.35;26.85;;;;;;;10.14;100.00;101251.97;1736031;82;22192;-67
2022/11/11 07:56:12;;;;;;;52.78;27.35;;;;;;;10.24;100.00;101260.14;1732962;82;21166;-67
2022/11/11 07:58:56;;;;;;;48.65;25.00;;;;;;;10.21;100.00;101257.54;1732827;82;21050;-67
2022/11/11 08:01:44;;;;;;;52.33;26.45;;;;;;;10.38;100.00;101260.38;1733072;82;21015;-67
2022/11/11 08:04:29;;;;;;;45.15;25.40;;;;;;;10.37;100.00;101266.52;1733211;82;21015;-67
2022/11/11 08:07:15;;;;;;;51.58;27.13;;;;;;;10.43;100.00;101262.48;1732933;82;21953;-66
2022/11/11 08:10:00;;;;;;;48.48;23.90;;;;;;;10.41;100.00;101259.00;1732776;82;21529;-68
2022/11/11 08:15:49;;;;;;;51.23;25.62;;;;;;;10.50;100.00;101264.09;1732760;82;21078;-66
2022/11/11 08:18:35;;;;;;;46.05;24.98;;;;;;;10.59;100.00;101263.92;1733151;82;21538;-66
2022/11/11 08:21:20;;;;;;;47.70;26.07;;;;;;;10.63;100.00;101273.52;1706070;83;21851;-66
2022/11/11 08:24:07;;;;;;;46.73;25.32;;;;;;;10.64;100.00;101276.55;1729788;83;21064;-66
2022/11/11 08:26:53;;;;;;;52.08;26.70;;;;;;;10.62;100.00;101274.39;1729626;83;21116;-67
2022/11/11 08:29:39;;;;;;;48.28;25.65;;;;;;;10.84;100.00;101276.63;1729627;83;21104;-66
2022/11/11 08:32:24;;;;;;;47.17;23.92;;;;;;;10.76;100.00;101282.03;1728956;83;22180;-66
2022/11/11 08:35:09;;;;;;;46.63;25.37;;;;;;;10.80;100.00;101282.85;1728941;83;21119;-67
2022/11/11 08:37:56;;;;;;;44.48;22.98;;;;;;;10.74;100.00;101282.96;1728981;83;21017;-67
2022/11/11 08:40:41;;;;;;;40.25;22.60;;;;;;;10.79;100.00;101286.37;1728948;83;21525;-68
2022/11/11 08:43:26;;;;;;;46.98;23.57;;;;;;;10.81;100.00;101279.30;1729041;83;21079;-67
2022/11/11 08:46:12;;;;;;;42.83;23.20;;;;;;;10.69;100.00;101282.59;1687297;83;21638;-66
2022/11/11 08:48:56;;;;;;;48.35;24.92;;;;;;;10.70;100.00;101282.17;1684342;85;21858;-67
2022/11/11 08:51:41;;;;;;;46.73;22.30;;;;;;;10.65;100.00;101282.68;1684151;85;21504;-66
2022/11/11 08:54:26;;;;;;;54.05;25.30;;;;;;;10.78;100.00;101282.02;1684232;85;21134;-67
2022/11/11 08:57:11;;;;;;;47.67;25.27;;;;;;;10.80;100.00;101281.53;1684037;85;21542;-68
2022/11/11 08:59:56;;;;;;;43.90;24.65;;;;;;;10.85;100.00;101280.98;1683992;85;21111;-67
2022/11/11 09:02:43;;;;;;;52.10;26.87;;;;;;;10.87;100.00;101280.52;1684119;85;21087;-67
2022/11/11 09:05:28;;;;;;;48.25;25.40;;;;;;;10.89;100.00;101277.41;1683976;85;21538;-67
2022/11/11 09:08:13;;;;;;;53.20;26.52;;;;;;;10.94;100.00;101270.27;1683877;85;21067;-67
2022/11/11 09:11:00;;;;;;;47.48;23.98;;;;;;;11.02;100.00;101278.89;1684072;85;21122;-67
2022/11/11 09:13:47;;;;;;;48.20;25.75;;;;;;;11.02;100.00;101274.94;1684164;85;21047;-66
2022/11/11 09:16:33;;;;;;;49.53;24.90;;;;;;;11.05;100.00;101276.19;1684366;85;21420;-67
2022/11/11 09:19:18;;;;;;;48.40;25.52;;;;;;;11.07;100.00;101265.16;1684069;85;21673;-67
2022/11/11 09:22:05;;;;;;;50.52;25.55;;;;;;;11.13;100.00;101270.31;1683242;84;21278;-66
2022/11/11 09:24:51;;;;;;;45.48;23.70;;;;;;;11.24;100.00;101273.16;1682330;84;21031;-68
2022/11/11 09:27:36;;;;;;;46.73;25.57;;;;;;;11.23;100.00;101276.72;1612561;87;21635;-66
2022/11/11 09:30:21;;;;;;;53.20;25.10;;;;;;;11.15;100.00;101275.99;1613795;88;21167;-67
2022/11/11 09:33:08;;;;;;;57.33;26.62;;;;;;;11.07;100.00;101279.66;1613800;88;21084;-66
2022/11/11 09:35:53;;;;;;;51.13;26.33;;;;;;;11.11;100.00;101270.80;1682324;85;21079;-66
2022/11/11 09:38:39;;;;;;;54.85;25.97;;;;;;;11.20;100.00;101266.21;1612677;89;21054;-66
2022/11/11 09:41:35;;;;;;;45.63;22.50;;;;;;;11.17;100.00;101267.14;1613889;88;21025;-66
2022/11/11 09:44:34;;;;;;;48.70;23.35;;;;;;;11.34;100.00;101273.36;1622915;85;21176;-66
2022/11/11 09:47:46;;;;;;;49.35;25.27;;;;;;;11.43;100.00;101266.56;1670635;85;21112;-66
2022/11/11 09:50:33;;;;;;;50.03;26.45;;;;;;;11.55;100.00;101263.67;1671979;85;21045;-67
2022/11/11 09:53:32;;;;;;;48.42;24.30;;;;;;;11.57;100.00;101265.39;1672242;85;21140;-67
2022/11/11 09:56:19;;;;;;;43.58;22.95;;;;;;;11.49;100.00;101270.85;1671942;85;21072;-67
2022/11/11 09:59:09;;;;;;;48.45;23.98;;;;;;;11.59;100.00;101271.50;1671838;85;21205;-67
2022/11/11 10:01:56;;;;;;;48.48;25.35;;;;;;;11.70;100.00;101274.77;1671826;85;21163;-69
2022/11/11 10:05:09;;;;;;;33.13;19.87;;;;;;;11.80;100.00;101272.34;1671744;85;21141;-66
2022/11/11 10:08:12;;;;;;;45.83;23.67;;;;;;;11.92;100.00;101272.53;1671687;85;21104;-66
2022/11/11 10:10:59;;;;;;;41.90;23.25;;;;;;;11.91;100.00;101269.00;1671719;85;21097;-66
2022/11/11 10:13:45;;;;;;;43.02;23.12;;;;;;;12.03;100.00;101265.64;1672153;85;21076;-66
2022/11/11 14:05:13;;;;;;;20.23;11.20;;;;;;;9.79;100.00;101354.71;1817805;78;28221;-68
2022/11/11 14:07:59;;;;;;;22.93;12.78;;;;;;;9.69;100.00;101351.80;1791710;80;21040;-67
2022/11/11 14:10:51;;;;;;;19.60;11.83;;;;;;;9.55;100.00;101362.95;1791481;80;21910;-68
2022/11/11 14:13:37;;;;;;;25.27;12.73;;;;;;;9.39;100.00;101363.14;1791497;80;21043;-67
2022/11/11 14:16:40;;;;;;;23.07;12.80;;;;;;;9.30;100.00;101367.65;1791459;80;21064;-67
2022/11/11 14:19:28;;;;;;;19.17;12.23;;;;;;;9.23;100.00;101366.84;1791750;80;21047;-67
2022/11/11 14:22:32;;;;;;;19.73;12.00;;;;;;;9.11;100.00;101366.97;1791682;80;21032;-67
2022/11/11 14:25:24;;;;;;;24.27;13.03;;;;;;;8.97;100.00;101368.02;1791327;80;21813;-66
2022/11/11 14:28:30;;;;;;;21.07;12.40;;;;;;;8.92;100.00;101373.73;1791448;80;21061;-66
2022/11/11 14:31:21;;;;;;;26.23;12.70;;;;;;;8.84;100.00;101374.28;1791219;80;21145;-66
2022/11/11 14:34:39;;;;;;;22.65;13.80;;;;;;;8.84;100.00;101373.41;1791661;80;21032;-66
2022/11/11 14:37:49;;;;;;;21.12;12.50;;;;;;;8.79;100.00;101373.45;1791618;80;21089;-67
2022/11/11 14:40:35;;;;;;;20.70;13.13;;;;;;;8.73;100.00;101368.25;1791554;80;21243;-66
2022/11/11 14:43:39;;;;;;;23.55;13.78;;;;;;;8.70;100.00;101368.30;1791453;80;21602;-66
2022/11/11 14:46:24;;;;;;;26.30;13.68;;;;;;;8.65;100.00;101370.06;1791345;80;21032;-66
2022/11/11 14:49:09;;;;;;;28.62;15.78;;;;;;;8.63;100.00;101375.35;1791510;80;21036;-66
2022/11/11 14:51:57;;;;;;;18.25;11.40;;;;;;;8.70;100.00;101368.30;1791381;80;21076;-67
2022/11/11 14:55:15;;;;;;;18.23;11.75;;;;;;;8.64;100.00;101368.34;1791632;80;21086;-67
2022/11/11 14:58:13;;;;;;;18.40;11.30;;;;;;;8.58;100.00;101379.75;1766726;80;21045;-67
2022/11/11 15:01:09;;;;;;;20.27;12.78;;;;;;;8.64;100.00;101393.28;1789429;80;21049;-67
2022/11/11 15:03:54;;;;;;;21.23;12.68;;;;;;;8.67;100.00;101384.05;1784520;80;21556;-66
2022/11/11 15:06:59;;;;;;;18.37;10.82;;;;;;;8.73;100.00;101390.58;1776523;80;21557;-66
2022/11/11 15:09:57;;;;;;;25.62;12.40;;;;;;;8.65;100.00;101396.33;1776501;80;21593;-66
2022/11/11 15:12:54;;;;;;;21.27;12.70;;;;;;;8.60;100.00;101399.89;1776783;80;21124;-66
2022/11/11 15:16:37;;;;;;;16.93;10.88;;;;;;;8.59;100.00;101405.14;1776635;80;21065;-66
2022/11/11 15:19:29;;;;;;;21.87;11.83;;;;;;;8.68;100.00;101412.08;1776761;80;21038;-68
2022/11/11 15:22:33;;;;;;;;;;;;;;;8.63;100.00;101398.98;1779490;80;21573;-68
2022/11/11 15:25:35;;;;;;;21.60;11.90;;;;;;;8.64;100.00;101409.05;1776589;80;21294;-66
2022/11/11 15:28:35;;;;;;;24.02;14.15;;;;;;;8.59;100.00;101404.69;1776718;80;21556;-66
2022/11/11 15:31:44;;;;;;;22.35;13.10;;;;;;;8.61;100.00;101401.62;1776615;80;21089;-67
2022/11/11 15:34:58;;;;;;;24.47;14.83;;;;;;;8.69;100.00;101405.92;1776821;80;22123;-66
2022/11/11 15:37:52;;;;;;;40.25;22.02;;;;;;;8.73;100.00;101406.34;1777061;80;21096;-66
2022/11/11 15:40:52;;;;;;;54.05;30.30;;;;;;;8.65;100.00;101400.27;1773767;80;21293;-67
2022/11/11 15:43:37;;;;;;;46.28;26.85;;;;;;;8.61;100.00;101402.92;1776924;80;21019;-66
2022/11/11 15:46:27;;;;;;;52.15;29.87;;;;;;;8.57;100.00;101405.14;1737115;81;20992;-67
2022/11/11 15:49:37;;;;;;;119.72;57.03;;;;;;;8.59;100.00;101397.27;1758813;81;21009;-66
2022/11/11 15:52:31;;;;;;;143.30;70.22;;;;;;;8.64;100.00;101390.21;1758701;81;21001;-68
2022/11/11 15:55:22;;;;;;;126.62;60.55;;;;;;;8.57;100.00;101397.27;1758423;81;21192;-68
2022/11/11 15:58:16;;;;;;;105.95;52.05;;;;;;;8.50;100.00;101406.53;1758425;81;21080;-67
2022/11/11 16:01:05;;;;;;;156.63;75.47;;;;;;;8.50;100.00;101400.83;1758247;81;21072;-67
2022/11/11 16:03:50;;;;;;;102.10;56.70;;;;;;;8.45;100.00;101402.63;1758383;81;21120;-67
2022/11/11 16:06:35;;;;;;;73.20;40.73;;;;;;;8.39;100.00;101403.95;1757839;81;21088;-67
2022/11/11 16:09:27;;;;;;;86.63;48.48;;;;;;;8.36;100.00;101401.36;1757796;81;21210;-66
2022/11/11 16:12:12;;;;;;;;;;;;;;;8.26;100.00;101400.98;1760326;81;21069;-65
2022/11/11 16:14:57;;;;;;;102.97;58.73;;;;;;;8.20;100.00;101404.53;1757742;81;20237;-68
2022/11/11 16:17:43;;;;;;;157.52;78.92;;;;;;;8.07;100.00;101395.85;1757870;81;21057;-66
2022/11/11 16:20:52;;;;;;;152.97;78.60;;;;;;;7.98;100.00;101402.05;1757873;81;21390;-66
2022/11/11 16:23:37;;;;;;;106.78;54.27;;;;;;;8.01;100.00;101405.55;1758018;81;21132;-67
2022/11/11 16:26:23;;;;;;;87.15;44.55;;;;;;;7.95;100.00;101413.86;1788872;80;21512;-66
2022/11/11 16:29:13;;;;;;;209.07;90.92;;;;;;;7.82;100.00;101417.86;1763438;80;21033;-67
2022/11/11 16:31:58;;;;;;;227.72;100.97;;;;;;;7.73;100.00;101424.91;1789149;80;21532;-66
2022/11/11 16:34:44;;;;;;;145.00;67.45;;;;;;;7.59;100.00;101428.02;1789260;80;21037;-66
2022/11/11 16:37:29;;;;;;;224.65;100.27;;;;;;;7.50;100.00;101431.98;1789178;80;21277;-65
2022/11/11 16:40:32;;;;;;;225.82;100.07;;;;;;;7.38;100.00;101433.34;1762788;80;21073;-67
2022/11/11 16:43:21;;;;;;;211.43;95.30;;;;;;;7.38;100.00;101437.27;1788998;80;21045;-67
2022/11/11 16:46:13;;;;;;;158.65;73.07;;;;;;;7.34;100.00;101444.28;1761068;80;21057;-66
2022/11/11 16:48:58;;;;;;;137.10;64.25;;;;;;;7.32;100.00;101448.21;1754381;81;21065;-66
2022/11/11 16:51:44;;;;;;;86.90;44.13;;;;;;;7.26;100.00;101453.91;1757876;81;22003;-66
2022/11/11 16:54:32;;;;;;;105.47;53.73;;;;;;;7.23;100.00;101447.37;1757786;81;21049;-67
2022/11/11 16:57:20;;;;;;;98.05;49.27;;;;;;;7.22;100.00;101458.27;1757772;81;21038;-66
2022/11/11 17:00:07;;;;;;;70.10;39.83;;;;;;;7.26;100.00;101454.77;1757657;81;21077;-66
2022/11/11 17:03:09;;;;;;;64.85;35.33;;;;;;;7.26;100.00;101456.08;1763190;81;21085;-67
2022/11/11 17:06:10;;;;;;;60.90;33.08;;;;;;;7.31;100.00;101453.00;1763287;79;21509;-67
2022/11/11 17:08:53;;;;;;;60.92;36.00;;;;;;;7.38;100.00;101450.37;1763538;80;21030;-67
2022/11/11 17:11:44;;;;;;;68.90;36.83;;;;;;;7.41;100.00;101443.39;1763397;80;21045;-67
2022/11/11 17:14:34;;;;;;;99.52;50.28;;;;;;;7.40;100.00;101443.38;1763675;80;21081;-66
2022/11/11 17:17:19;;;;;;;90.87;44.85;;;;;;;7.42;100.00;101440.33;1763549;81;21037;-67
2022/11/11 17:20:14;;;;;;;75.52;42.20;;;;;;;7.49;100.00;101443.36;1763823;80;21142;-67
2022/11/11 17:22:59;;;;;;;49.95;27.93;;;;;;;7.45;100.00;101444.23;1763605;80;21107;-66
2022/11/11 17:25:45;;;;;;;61.02;34.23;;;;;;;7.48;100.00;101425.90;1763626;81;21501;-66
2022/11/11 17:28:35;;;;;;;57.60;31.23;;;;;;;7.46;100.00;101428.95;1763583;80;21017;-67
2022/11/11 17:31:22;;;;;;;68.87;32.65;;;;;;;7.48;100.00;101425.90;1763454;80;25966;-67
2022/11/11 17:34:09;;;;;;;47.48;26.80;;;;;;;7.47;100.00;101421.52;1763523;81;22135;-66
2022/11/11 17:36:54;;;;;;;74.20;40.52;;;;;;;7.60;100.00;101426.28;1763623;80;21033;-67
2022/11/11 17:39:42;;;;;;;62.45;34.40;;;;;;;7.61;100.00;101424.95;1763867;80;21533;-66
2022/11/11 17:42:29;;;;;;;68.12;37.17;;;;;;;7.52;100.00;101417.12;1763474;81;21053;-66
2022/11/11 17:45:14;;;;;;;105.97;52.05;;;;;;;7.50;100.00;101412.31;1745763;80;21010;-67
2022/11/11 17:47:59;;;;;;;117.65;58.38;;;;;;;7.53;100.00;101414.95;1729592;83;21232;-67
2022/11/11 17:50:44;;;;;;;120.10;61.05;;;;;;;7.54;100.00;101410.13;1729500;83;21065;-67
2022/11/11 17:53:33;;;;;;;143.80;71.17;;;;;;;7.43;100.00;101414.53;1729659;82;21109;-66
2022/11/11 23:50:42;;;;;;;85.23;44.57;;;;;;;4.89;100.00;101445.84;1723410;80;20934;-90
2022/11/11 23:53:27;;;;;;;83.33;42.43;;;;;;;4.73;100.00;101445.72;1709578;82;21024;-91
2022/11/11 23:56:12;;;;;;;90.87;47.13;;;;;;;4.69;100.00;101453.07;1740363;81;21075;-91
2022/11/11 23:58:57;;;;;;;83.75;45.48;;;;;;;4.61;100.00;101449.54;1725328;82;21268;-91
